sensor_id;sensor_type;location;lat;lon;timestamp;pressure;altitude;pressure_sealevel;temperature;humidity
10135;BME280;5107;48.850;8.924;2022-09-03T00:01:05;96471.53;;;17.96;58.54
10135;BME280;5107;48.850;8.924;2022-09-03T00:03:41;96469.47;;;17.98;57.86
10135;BME280;5107;48.850;8.924;2022-09-03T00:06:15;96466.63;;;17.93;58.04
10135;BME280;5107;48.850;8.924;2022-09-03T00:08:49;96463.81;;;17.88;57.34
10135;BME280;5107;48.850;8.924;2022-09-03T00:11:21;96465.72;;;17.99;58.37
10135;BME280;5107;48.850;8.924;2022-09-03T00:13:56;96469.06;;;17.95;59.89
10135;BME280;5107;48.850;8.924;2022-09-03T00:16:32;96466.78;;;17.98;61.31
10135;BME280;5107;48.850;8.924;2022-09-03T00:19:03;96463.81;;;17.88;62.03
10135;BME280;5107;48.850;8.924;2022-09-03T00:21:37;96464.66;;;17.89;61.36
10135;BME280;5107;48.850;8.924;2022-09-03T00:24:10;96463.00;;;17.88;61.07
10135;BME280;5107;48.850;8.924;2022-09-03T00:26:42;96461.16;;;17.88;60.77
10135;BME280;5107;48.850;8.924;2022-09-03T00:29:15;96461.81;;;17.83;59.62
10135;BME280;5107;48.850;8.924;2022-09-03T00:31:46;96461.25;;;17.81;59.03
10135;BME280;5107;48.850;8.924;2022-09-03T00:34:22;96456.78;;;17.75;58.81
10135;BME280;5107;48.850;8.924;2022-09-03T00:36:52;96468.03;;;17.77;59.12
10135;BME280;5107;48.850;8.924;2022-09-03T00:39:26;96456.72;;;17.82;60.17
10135;BME280;5107;48.850;8.924;2022-09-03T00:42:10;96453.25;;;17.81;58.52
10135;BME280;5107;48.850;8.924;2022-09-03T00:44:56;96453.31;;;17.75;57.79
10135;BME280;5107;48.850;8.924;2022-09-03T00:47:36;96452.34;;;17.69;57.73
10135;BME280;5107;48.850;8.924;2022-09-03T00:50:17;96446.00;;;17.70;58.25
10135;BME280;5107;48.850;8.924;2022-09-03T00:53:03;96449.25;;;17.72;57.20
10135;BME280;5107;48.850;8.924;2022-09-03T00:55:40;96446.53;;;17.79;58.40
10135;BME280;5107;48.850;8.924;2022-09-03T00:58:36;96450.13;;;17.66;61.54
10135;BME280;5107;48.850;8.924;2022-09-03T01:01:14;96460.19;;;17.58;61.52
10135;BME280;5107;48.850;8.924;2022-09-03T01:03:51;96468.19;;;17.58;62.31
10135;BME280;5107;48.850;8.924;2022-09-03T01:06:32;96461.63;;;17.60;61.95
10135;BME280;5107;48.850;8.924;2022-09-03T01:09:25;96455.75;;;17.52;61.66
10135;BME280;5107;48.850;8.924;2022-09-03T01:12:03;96455.97;;;17.50;63.45
10135;BME280;5107;48.850;8.924;2022-09-03T01:14:51;96450.63;;;17.57;63.29
10135;BME280;5107;48.850;8.924;2022-09-03T01:17:35;96453.50;;;17.55;62.71
10135;BME280;5107;48.850;8.924;2022-09-03T01:20:20;96461.00;;;17.58;64.07
10135;BME280;5107;48.850;8.924;2022-09-03T01:23:35;96463.31;;;17.55;62.80
10135;BME280;5107;48.850;8.924;2022-09-03T01:26:25;96453.91;;;17.52;64.17
10135;BME280;5107;48.850;8.924;2022-09-03T01:29:09;96453.31;;;17.50;59.65
10135;BME280;5107;48.850;8.924;2022-09-03T01:31:51;96459.59;;;17.62;60.84
10135;BME280;5107;48.850;8.924;2022-09-03T01:34:35;96461.88;;;17.77;61.46
10135;BME280;5107;48.850;8.924;2022-09-03T01:37:16;96453.69;;;17.78;58.92
10135;BME280;5107;48.850;8.924;2022-09-03T01:40:02;96457.81;;;17.74;58.25
10135;BME280;5107;48.850;8.924;2022-09-03T01:42:46;96455.31;;;17.79;59.54
10135;BME280;5107;48.850;8.924;2022-09-03T01:45:31;96451.41;;;17.82;57.62
10135;BME280;5107;48.850;8.924;2022-09-03T01:48:13;96450.44;;;17.76;57.16
10135;BME280;5107;48.850;8.924;2022-09-03T01:50:48;96456.44;;;17.72;57.68
10135;BME280;5107;48.850;8.924;2022-09-03T01:53:55;96464.25;;;17.67;58.67
10135;BME280;5107;48.850;8.924;2022-09-03T01:56:39;96474.78;;;17.80;59.89
10135;BME280;5107;48.850;8.924;2022-09-03T01:59:17;96464.66;;;17.89;59.69
10135;BME280;5107;48.850;8.924;2022-09-03T02:01:56;96460.88;;;17.96;58.75
10135;BME280;5107;48.850;8.924;2022-09-03T02:04:26;96463.31;;;17.98;59.86
10135;BME280;5107;48.850;8.924;2022-09-03T02:06:56;96463.81;;;17.88;62.54
10135;BME280;5107;48.850;8.924;2022-09-03T02:09:25;96456.50;;;17.83;63.05
10135;BME280;5107;48.850;8.924;2022-09-03T02:11:57;96457.53;;;17.64;63.58
10135;BME280;5107;48.850;8.924;2022-09-03T02:14:26;96454.00;;;17.45;62.73
10135;BME280;5107;48.850;8.924;2022-09-03T02:16:57;96454.34;;;17.31;62.59
10135;BME280;5107;48.850;8.924;2022-09-03T02:19:27;96462.88;;;17.33;64.30
10135;BME280;5107;48.850;8.924;2022-09-03T02:21:56;96467.28;;;17.45;63.50
10135;BME280;5107;48.850;8.924;2022-09-03T02:24:24;96471.53;;;17.53;63.51
10135;BME280;5107;48.850;8.924;2022-09-03T02:26:52;96472.72;;;17.57;63.02
10135;BME280;5107;48.850;8.924;2022-09-03T02:29:20;96471.09;;;17.56;62.08
10135;BME280;5107;48.850;8.924;2022-09-03T02:31:48;96473.75;;;17.56;61.25
10135;BME280;5107;48.850;8.924;2022-09-03T02:34:16;96464.84;;;17.44;60.21
10135;BME280;5107;48.850;8.924;2022-09-03T02:36:46;96464.53;;;17.34;60.31
10135;BME280;5107;48.850;8.924;2022-09-03T02:39:14;96464.66;;;17.21;60.55
10135;BME280;5107;48.850;8.924;2022-09-03T02:41:42;96465.88;;;17.18;62.58
10135;BME280;5107;48.850;8.924;2022-09-03T02:44:14;96462.00;;;17.21;61.49
10135;BME280;5107;48.850;8.924;2022-09-03T02:46:54;96466.69;;;17.19;63.09
10135;BME280;5107;48.850;8.924;2022-09-03T02:49:24;96451.72;;;17.24;63.45
10135;BME280;5107;48.850;8.924;2022-09-03T02:51:56;96451.06;;;17.29;63.42
10135;BME280;5107;48.850;8.924;2022-09-03T02:54:23;96451.28;;;17.27;65.45
10135;BME280;5107;48.850;8.924;2022-09-03T02:56:51;96451.81;;;17.36;65.53
10135;BME280;5107;48.850;8.924;2022-09-03T02:59:18;96450.47;;;17.27;65.91
10135;BME280;5107;48.850;8.924;2022-09-03T03:01:47;96454.91;;;17.33;66.09
10135;BME280;5107;48.850;8.924;2022-09-03T03:04:14;96458.72;;;17.43;65.74
10135;BME280;5107;48.850;8.924;2022-09-03T03:06:43;96461.59;;;17.42;64.92
10135;BME280;5107;48.850;8.924;2022-09-03T03:09:10;96463.22;;;17.43;63.96
10135;BME280;5107;48.850;8.924;2022-09-03T03:11:37;96459.09;;;17.47;63.01
10135;BME280;5107;48.850;8.924;2022-09-03T03:14:06;96464.13;;;17.55;62.69
10135;BME280;5107;48.850;8.924;2022-09-03T03:16:33;96470.03;;;17.64;62.78
10135;BME280;5107;48.850;8.924;2022-09-03T03:19:00;96469.81;;;17.65;62.81
10135;BME280;5107;48.850;8.924;2022-09-03T03:21:27;96467.16;;;17.65;62.46
10135;BME280;5107;48.850;8.924;2022-09-03T03:23:57;96464.75;;;17.57;62.92
10135;BME280;5107;48.850;8.924;2022-09-03T03:26:24;96469.94;;;17.45;63.54
10135;BME280;5107;48.850;8.924;2022-09-03T03:28:56;96465.72;;;17.38;64.53
10135;BME280;5107;48.850;8.924;2022-09-03T03:31:24;96462.06;;;17.32;64.97
10135;BME280;5107;48.850;8.924;2022-09-03T03:33:53;96456.41;;;17.29;66.94
10135;BME280;5107;48.850;8.924;2022-09-03T03:36:22;96457.69;;;17.20;65.97
10135;BME280;5107;48.850;8.924;2022-09-03T03:38:53;96462.34;;;17.24;67.81
10135;BME280;5107;48.850;8.924;2022-09-03T03:41:24;96463.16;;;17.25;67.75
10135;BME280;5107;48.850;8.924;2022-09-03T03:43:53;96459.94;;;17.23;66.76
10135;BME280;5107;48.850;8.924;2022-09-03T03:46:21;96457.00;;;17.31;67.01
10135;BME280;5107;48.850;8.924;2022-09-03T03:48:49;96457.97;;;17.36;65.18
10135;BME280;5107;48.850;8.924;2022-09-03T03:51:17;96463.41;;;17.23;65.01
10135;BME280;5107;48.850;8.924;2022-09-03T03:53:45;96467.03;;;17.29;64.77
10135;BME280;5107;48.850;8.924;2022-09-03T03:56:14;96468.72;;;17.23;64.88
10135;BME280;5107;48.850;8.924;2022-09-03T03:58:43;96465.41;;;17.28;64.96
10135;BME280;5107;48.850;8.924;2022-09-03T04:01:13;96469.03;;;17.33;65.19
10135;BME280;5107;48.850;8.924;2022-09-03T04:03:41;96460.47;;;17.31;65.74
10135;BME280;5107;48.850;8.924;2022-09-03T04:06:11;96473.91;;;17.36;66.59
10135;BME280;5107;48.850;8.924;2022-09-03T04:08:41;96471.59;;;17.47;65.74
10135;BME280;5107;48.850;8.924;2022-09-03T04:11:13;96471.19;;;17.43;64.20
10135;BME280;5107;48.850;8.924;2022-09-03T04:13:44;96471.13;;;17.50;63.96
10135;BME280;5107;48.850;8.924;2022-09-03T04:16:14;96477.50;;;17.49;62.94
10135;BME280;5107;48.850;8.924;2022-09-03T04:18:41;96465.88;;;17.43;62.58
10135;BME280;5107;48.850;8.924;2022-09-03T04:21:10;96474.06;;;17.41;64.39
10135;BME280;5107;48.850;8.924;2022-09-03T04:23:40;96467.91;;;17.48;65.53
10135;BME280;5107;48.850;8.924;2022-09-03T04:26:10;96464.56;;;17.52;64.58
10135;BME280;5107;48.850;8.924;2022-09-03T04:28:37;96463.38;;;17.48;63.37
10135;BME280;5107;48.850;8.924;2022-09-03T04:31:09;96457.28;;;17.41;65.26
10135;BME280;5107;48.850;8.924;2022-09-03T04:33:37;96463.66;;;17.40;64.76
10135;BME280;5107;48.850;8.924;2022-09-03T04:36:07;96468.09;;;17.46;65.01
10135;BME280;5107;48.850;8.924;2022-09-03T04:38:36;96469.00;;;17.40;63.96
10135;BME280;5107;48.850;8.924;2022-09-03T04:41:05;96470.56;;;17.48;65.48
10135;BME280;5107;48.850;8.924;2022-09-03T04:43:33;96471.94;;;17.50;65.59
10135;BME280;5107;48.850;8.924;2022-09-03T04:46:02;96463.53;;;17.53;65.35
10135;BME280;5107;48.850;8.924;2022-09-03T04:48:33;96482.16;;;17.53;65.84
10135;BME280;5107;48.850;8.924;2022-09-03T04:51:03;96471.66;;;17.58;65.35
10135;BME280;5107;48.850;8.924;2022-09-03T04:53:32;96470.84;;;17.58;66.07
10135;BME280;5107;48.850;8.924;2022-09-03T04:56:00;96465.50;;;17.64;64.84
10135;BME280;5107;48.850;8.924;2022-09-03T04:58:27;96465.31;;;17.59;65.89
10135;BME280;5107;48.850;8.924;2022-09-03T05:00:54;96465.78;;;17.56;65.65
10135;BME280;5107;48.850;8.924;2022-09-03T05:03:22;96462.88;;;17.58;66.80
10135;BME280;5107;48.850;8.924;2022-09-03T05:05:55;96474.88;;;17.42;66.75
10135;BME280;5107;48.850;8.924;2022-09-03T05:08:22;96475.91;;;17.16;69.41
10135;BME280;5107;48.850;8.924;2022-09-03T05:10:57;96477.28;;;17.25;68.92
10135;BME280;5107;48.850;8.924;2022-09-03T05:13:26;96480.94;;;17.06;69.27
10135;BME280;5107;48.850;8.924;2022-09-03T05:15:58;96480.03;;;16.87;70.08
10135;BME280;5107;48.850;8.924;2022-09-03T05:18:25;96477.44;;;16.74;71.39
10135;BME280;5107;48.850;8.924;2022-09-03T05:20:58;96476.31;;;16.57;71.79
10135;BME280;5107;48.850;8.924;2022-09-03T05:23:26;96477.88;;;16.71;72.21
10135;BME280;5107;48.850;8.924;2022-09-03T05:25:58;96473.34;;;16.78;71.31
10135;BME280;5107;48.850;8.924;2022-09-03T05:28:25;96476.59;;;16.80;71.79
10135;BME280;5107;48.850;8.924;2022-09-03T05:31:00;96488.25;;;16.79;71.42
10135;BME280;5107;48.850;8.924;2022-09-03T05:33:27;96486.44;;;16.80;71.65
10135;BME280;5107;48.850;8.924;2022-09-03T05:36:02;96499.31;;;16.76;72.38
10135;BME280;5107;48.850;8.924;2022-09-03T05:38:30;96486.88;;;17.01;71.80
10135;BME280;5107;48.850;8.924;2022-09-03T05:40:57;96488.66;;;17.07;72.23
10135;BME280;5107;48.850;8.924;2022-09-03T05:43:25;96483.09;;;17.16;72.05
10135;BME280;5107;48.850;8.924;2022-09-03T05:45:56;96483.13;;;17.34;71.96
10135;BME280;5107;48.850;8.924;2022-09-03T05:48:25;96483.31;;;17.39;71.80
10135;BME280;5107;48.850;8.924;2022-09-03T05:50:59;96482.16;;;17.53;71.81
10135;BME280;5107;48.850;8.924;2022-09-03T05:53:29;96489.81;;;17.43;72.16
10135;BME280;5107;48.850;8.924;2022-09-03T05:55:58;96495.81;;;17.38;73.27
10135;BME280;5107;48.850;8.924;2022-09-03T05:58:29;96494.38;;;17.36;72.07
10135;BME280;5107;48.850;8.924;2022-09-03T06:00:56;96503.13;;;17.18;72.97
10135;BME280;5107;48.850;8.924;2022-09-03T06:03:24;96504.03;;;17.05;73.45
10135;BME280;5107;48.850;8.924;2022-09-03T06:05:53;96505.69;;;17.00;74.52
10135;BME280;5107;48.850;8.924;2022-09-03T06:08:21;96506.25;;;17.08;74.46
10135;BME280;5107;48.850;8.924;2022-09-03T06:10:49;96510.72;;;17.15;74.31
10135;BME280;5107;48.850;8.924;2022-09-03T06:13:16;96506.53;;;17.25;73.59
10135;BME280;5107;48.850;8.924;2022-09-03T06:15:43;96510.84;;;17.26;74.00
10135;BME280;5107;48.850;8.924;2022-09-03T06:18:11;96511.69;;;17.20;74.10
10135;BME280;5107;48.850;8.924;2022-09-03T06:20:38;96515.78;;;17.23;73.86
10135;BME280;5107;48.850;8.924;2022-09-03T06:23:05;96516.34;;;17.31;74.00
10135;BME280;5107;48.850;8.924;2022-09-03T06:25:32;96520.44;;;17.52;73.99
10135;BME280;5107;48.850;8.924;2022-09-03T06:28:01;96515.06;;;17.59;73.02
10135;BME280;5107;48.850;8.924;2022-09-03T06:30:28;96514.25;;;17.65;72.35
10135;BME280;5107;48.850;8.924;2022-09-03T06:32:55;96513.97;;;17.73;72.27
10135;BME280;5107;48.850;8.924;2022-09-03T06:35:23;96511.38;;;17.85;72.04
10135;BME280;5107;48.850;8.924;2022-09-03T06:37:50;96515.16;;;17.95;70.82
10135;BME280;5107;48.850;8.924;2022-09-03T06:40:17;96509.94;;;18.07;71.10
10135;BME280;5107;48.850;8.924;2022-09-03T06:42:55;96503.28;;;18.16;70.63
10135;BME280;5107;48.850;8.924;2022-09-03T06:45:25;96509.16;;;18.18;70.54
10135;BME280;5107;48.850;8.924;2022-09-03T06:47:54;96516.63;;;18.09;70.04
10135;BME280;5107;48.850;8.924;2022-09-03T06:50:21;96518.78;;;18.19;70.08
10135;BME280;5107;48.850;8.924;2022-09-03T06:52:51;96511.31;;;18.28;71.30
10135;BME280;5107;48.850;8.924;2022-09-03T06:55:20;96518.38;;;18.52;70.13
10135;BME280;5107;48.850;8.924;2022-09-03T06:57:47;96515.00;;;18.63;69.20
10135;BME280;5107;48.850;8.924;2022-09-03T07:00:16;96512.38;;;18.75;69.72
10135;BME280;5107;48.850;8.924;2022-09-03T07:02:44;96517.66;;;18.63;69.62
10135;BME280;5107;48.850;8.924;2022-09-03T07:05:13;96520.94;;;18.65;69.53
10135;BME280;5107;48.850;8.924;2022-09-03T07:07:40;96523.69;;;18.88;69.67
10135;BME280;5107;48.850;8.924;2022-09-03T07:10:09;96530.34;;;18.98;68.31
10135;BME280;5107;48.850;8.924;2022-09-03T07:12:38;96529.78;;;19.07;68.80
10135;BME280;5107;48.850;8.924;2022-09-03T07:15:07;96534.22;;;19.13;68.70
10135;BME280;5107;48.850;8.924;2022-09-03T07:17:34;96529.94;;;19.24;69.69
10135;BME280;5107;48.850;8.924;2022-09-03T07:20:03;96534.09;;;19.50;69.88
10135;BME280;5107;48.850;8.924;2022-09-03T07:22:30;96536.19;;;19.71;67.42
10135;BME280;5107;48.850;8.924;2022-09-03T07:24:57;96531.88;;;19.93;67.52
10135;BME280;5107;48.850;8.924;2022-09-03T07:27:25;96545.13;;;20.12;66.54
10135;BME280;5107;48.850;8.924;2022-09-03T07:29:52;96542.81;;;19.80;64.49
10135;BME280;5107;48.850;8.924;2022-09-03T07:32:19;96535.03;;;19.90;66.02
10135;BME280;5107;48.850;8.924;2022-09-03T07:34:46;96532.69;;;19.94;64.78
10135;BME280;5107;48.850;8.924;2022-09-03T07:37:14;96528.31;;;19.99;65.06
10135;BME280;5107;48.850;8.924;2022-09-03T07:39:43;96537.56;;;20.20;64.64
10135;BME280;5107;48.850;8.924;2022-09-03T07:42:11;96537.69;;;20.37;62.81
10135;BME280;5107;48.850;8.924;2022-09-03T07:44:38;96538.81;;;20.53;62.41
10135;BME280;5107;48.850;8.924;2022-09-03T07:47:05;96548.81;;;20.57;61.16
10135;BME280;5107;48.850;8.924;2022-09-03T07:49:32;96543.69;;;20.56;61.46
10135;BME280;5107;48.850;8.924;2022-09-03T07:52:01;96545.25;;;20.40;62.19
10135;BME280;5107;48.850;8.924;2022-09-03T07:54:30;96545.81;;;20.30;63.19
10135;BME280;5107;48.850;8.924;2022-09-03T07:56:57;96553.81;;;20.42;63.82
10135;BME280;5107;48.850;8.924;2022-09-03T07:59:24;96554.72;;;20.59;62.62
10135;BME280;5107;48.850;8.924;2022-09-03T08:01:51;96558.38;;;20.41;62.73
10135;BME280;5107;48.850;8.924;2022-09-03T08:04:19;96558.25;;;20.36;63.46
10135;BME280;5107;48.850;8.924;2022-09-03T08:06:47;96558.47;;;20.47;63.64
10135;BME280;5107;48.850;8.924;2022-09-03T08:09:14;96560.91;;;20.48;62.49
10135;BME280;5107;48.850;8.924;2022-09-03T08:11:43;96569.84;;;20.54;62.70
10135;BME280;5107;48.850;8.924;2022-09-03T08:14:12;96566.97;;;20.32;63.25
10135;BME280;5107;48.850;8.924;2022-09-03T08:16:42;96573.22;;;20.26;63.47
10135;BME280;5107;48.850;8.924;2022-09-03T08:19:10;96582.09;;;20.15;64.19
10135;BME280;5107;48.850;8.924;2022-09-03T08:21:38;96580.44;;;20.02;65.37
10135;BME280;5107;48.850;8.924;2022-09-03T08:24:06;96586.94;;;19.94;64.91
10135;BME280;5107;48.850;8.924;2022-09-03T08:26:36;96581.97;;;19.98;64.33
10135;BME280;5107;48.850;8.924;2022-09-03T08:29:05;96586.25;;;19.87;63.94
10135;BME280;5107;48.850;8.924;2022-09-03T08:31:34;96588.22;;;19.80;63.97
10135;BME280;5107;48.850;8.924;2022-09-03T08:34:04;96588.56;;;19.72;64.69
10135;BME280;5107;48.850;8.924;2022-09-03T08:36:33;96580.56;;;19.72;63.89
10135;BME280;5107;48.850;8.924;2022-09-03T08:39:04;96587.19;;;19.81;63.54
10135;BME280;5107;48.850;8.924;2022-09-03T08:41:47;96584.97;;;19.78;62.97
10135;BME280;5107;48.850;8.924;2022-09-03T08:44:29;96590.56;;;19.88;63.68
10135;BME280;5107;48.850;8.924;2022-09-03T08:47:04;96588.09;;;20.10;62.29
10135;BME280;5107;48.850;8.924;2022-09-03T08:49:40;96594.72;;;20.31;61.74
10135;BME280;5107;48.850;8.924;2022-09-03T08:52:31;96599.50;;;20.17;61.55
10135;BME280;5107;48.850;8.924;2022-09-03T08:55:20;96601.81;;;20.25;60.92
10135;BME280;5107;48.850;8.924;2022-09-03T08:57:54;96604.63;;;20.07;61.15
10135;BME280;5107;48.850;8.924;2022-09-03T09:00:41;96613.72;;;20.41;62.39
10135;BME280;5107;48.850;8.924;2022-09-03T09:03:40;96615.84;;;20.79;61.03
10135;BME280;5107;48.850;8.924;2022-09-03T09:06:17;96606.44;;;22.07;58.88
10135;BME280;5107;48.850;8.924;2022-09-03T09:09:02;96605.72;;;22.50;56.24
10135;BME280;5107;48.850;8.924;2022-09-03T09:11:46;96606.28;;;22.74;53.79
10135;BME280;5107;48.850;8.924;2022-09-03T09:14:21;96618.44;;;22.21;56.27
10135;BME280;5107;48.850;8.924;2022-09-03T09:17:03;96620.53;;;22.19;56.53
10135;BME280;5107;48.850;8.924;2022-09-03T09:19:46;96618.88;;;22.34;55.87
10135;BME280;5107;48.850;8.924;2022-09-03T09:22:25;96622.78;;;22.44;56.73
10135;BME280;5107;48.850;8.924;2022-09-03T09:24:56;96616.31;;;22.61;56.04
10135;BME280;5107;48.850;8.924;2022-09-03T09:27:24;96615.50;;;22.61;54.86
10135;BME280;5107;48.850;8.924;2022-09-03T09:29:52;96606.59;;;22.17;56.96
10135;BME280;5107;48.850;8.924;2022-09-03T09:32:22;96606.25;;;22.13;58.31
10135;BME280;5107;48.850;8.924;2022-09-03T09:34:49;96595.97;;;22.27;59.74
10135;BME280;5107;48.850;8.924;2022-09-03T09:37:18;96596.28;;;22.47;57.45
10135;BME280;5107;48.850;8.924;2022-09-03T09:39:55;96591.91;;;22.41;56.42
10135;BME280;5107;48.850;8.924;2022-09-03T09:42:23;96586.94;;;22.50;57.66
10135;BME280;5107;48.850;8.924;2022-09-03T09:44:51;96587.16;;;22.87;56.97
10135;BME280;5107;48.850;8.924;2022-09-03T09:47:24;96592.97;;;22.79;55.80
10135;BME280;5107;48.850;8.924;2022-09-03T09:49:55;96591.09;;;22.79;57.00
10135;BME280;5107;48.850;8.924;2022-09-03T09:52:24;96591.34;;;22.61;56.99
10135;BME280;5107;48.850;8.924;2022-09-03T09:55:06;96604.28;;;22.64;56.80
10135;BME280;5107;48.850;8.924;2022-09-03T09:57:34;96603.22;;;22.65;57.82
10135;BME280;5107;48.850;8.924;2022-09-03T10:00:05;96608.97;;;22.74;56.47
10135;BME280;5107;48.850;8.924;2022-09-03T10:02:40;96606.88;;;22.97;55.77
10135;BME280;5107;48.850;8.924;2022-09-03T10:05:17;96593.47;;;22.76;55.48
10135;BME280;5107;48.850;8.924;2022-09-03T10:07:55;96592.16;;;22.40;57.86
10135;BME280;5107;48.850;8.924;2022-09-03T10:10:24;96589.34;;;21.79;58.15
10135;BME280;5107;48.850;8.924;2022-09-03T10:12:56;96591.03;;;21.69;60.17
10135;BME280;5107;48.850;8.924;2022-09-03T10:15:32;96587.84;;;22.39;58.01
10135;BME280;5107;48.850;8.924;2022-09-03T10:18:10;96585.09;;;22.94;55.91
10135;BME280;5107;48.850;8.924;2022-09-03T10:20:45;96581.84;;;23.40;53.83
10135;BME280;5107;48.850;8.924;2022-09-03T10:23:21;96594.25;;;23.46;51.84
10135;BME280;5107;48.850;8.924;2022-09-03T10:26:01;96592.44;;;23.03;53.39
10135;BME280;5107;48.850;8.924;2022-09-03T10:28:34;96587.91;;;23.31;52.27
10135;BME280;5107;48.850;8.924;2022-09-03T10:31:40;96582.25;;;23.86;52.39
10135;BME280;5107;48.850;8.924;2022-09-03T10:34:17;96581.81;;;24.31;50.34
10135;BME280;5107;48.850;8.924;2022-09-03T10:37:00;96573.75;;;23.99;50.81
10135;BME280;5107;48.850;8.924;2022-09-03T10:39:44;96575.78;;;23.28;53.12
10135;BME280;5107;48.850;8.924;2022-09-03T10:42:32;96576.00;;;23.75;53.60
10135;BME280;5107;48.850;8.924;2022-09-03T10:45:11;96572.41;;;24.34;50.53
10135;BME280;5107;48.850;8.924;2022-09-03T10:48:20;96579.59;;;24.23;50.36
10135;BME280;5107;48.850;8.924;2022-09-03T10:50:58;96563.19;;;23.88;53.91
10135;BME280;5107;48.850;8.924;2022-09-03T10:54:01;96573.06;;;24.19;50.76
10135;BME280;5107;48.850;8.924;2022-09-03T10:56:39;96572.97;;;24.04;51.54
10135;BME280;5107;48.850;8.924;2022-09-03T10:59:31;96559.13;;;23.53;52.28
10135;BME280;5107;48.850;8.924;2022-09-03T11:02:18;96562.47;;;23.12;53.99
10135;BME280;5107;48.850;8.924;2022-09-03T11:04:53;96560.91;;;23.42;54.43
10135;BME280;5107;48.850;8.924;2022-09-03T11:07:26;96559.50;;;23.99;55.71
10135;BME280;5107;48.850;8.924;2022-09-03T11:10:08;96557.72;;;24.09;50.68
10135;BME280;5107;48.850;8.924;2022-09-03T11:12:42;96561.13;;;24.00;50.62
10135;BME280;5107;48.850;8.924;2022-09-03T11:15:17;96556.56;;;24.00;51.66
10135;BME280;5107;48.850;8.924;2022-09-03T11:17:54;96562.94;;;23.57;52.78
10135;BME280;5107;48.850;8.924;2022-09-03T11:20:25;96546.66;;;23.42;52.45
10135;BME280;5107;48.850;8.924;2022-09-03T11:22:58;96545.28;;;23.13;53.28
10135;BME280;5107;48.850;8.924;2022-09-03T11:25:31;96547.66;;;22.82;53.50
10135;BME280;5107;48.850;8.924;2022-09-03T11:28:11;96549.06;;;22.46;54.34
10135;BME280;5107;48.850;8.924;2022-09-03T11:30:58;96556.28;;;22.46;55.14
10135;BME280;5107;48.850;8.924;2022-09-03T11:33:31;96549.50;;;22.38;54.79
10135;BME280;5107;48.850;8.924;2022-09-03T11:36:04;96550.56;;;22.59;55.34
10135;BME280;5107;48.850;8.924;2022-09-03T11:38:33;96546.06;;;22.64;54.74
10135;BME280;5107;48.850;8.924;2022-09-03T11:41:11;96534.22;;;22.82;53.37
10135;BME280;5107;48.850;8.924;2022-09-03T11:43:39;96540.25;;;22.73;54.15
10135;BME280;5107;48.850;8.924;2022-09-03T11:46:12;96536.41;;;22.42;54.22
10135;BME280;5107;48.850;8.924;2022-09-03T11:48:42;96534.84;;;22.07;55.57
10135;BME280;5107;48.850;8.924;2022-09-03T11:51:20;96535.44;;;22.09;55.45
10135;BME280;5107;48.850;8.924;2022-09-03T11:53:58;96537.84;;;22.11;55.19
10135;BME280;5107;48.850;8.924;2022-09-03T11:56:26;96542.38;;;22.10;55.69
10135;BME280;5107;48.850;8.924;2022-09-03T11:59:18;96536.13;;;22.21;56.25
10135;BME280;5107;48.850;8.924;2022-09-03T12:01:51;96537.78;;;22.06;55.68
10135;BME280;5107;48.850;8.924;2022-09-03T12:04:23;96543.13;;;21.89;56.02
10135;BME280;5107;48.850;8.924;2022-09-03T12:07:23;96558.56;;;21.82;56.03
10135;BME280;5107;48.850;8.924;2022-09-03T12:10:09;96552.16;;;21.66;56.43
10135;BME280;5107;48.850;8.924;2022-09-03T12:12:52;96549.16;;;21.63;57.10
10135;BME280;5107;48.850;8.924;2022-09-03T12:15:41;96547.44;;;21.56;57.95
10135;BME280;5107;48.850;8.924;2022-09-03T12:18:17;96552.97;;;21.50;58.27
10135;BME280;5107;48.850;8.924;2022-09-03T12:20:59;96561.31;;;21.37;58.96
10135;BME280;5107;48.850;8.924;2022-09-03T12:23:30;96568.59;;;21.13;59.49
10135;BME280;5107;48.850;8.924;2022-09-03T12:26:03;96576.94;;;21.00;61.66
10135;BME280;5107;48.850;8.924;2022-09-03T12:28:35;96595.25;;;20.79;63.71
10135;BME280;5107;48.850;8.924;2022-09-03T12:31:09;96605.66;;;20.53;65.89
10135;BME280;5107;48.850;8.924;2022-09-03T12:33:46;96601.94;;;19.95;68.09
10135;BME280;5107;48.850;8.924;2022-09-03T12:36:14;96599.72;;;19.39;68.75
10135;BME280;5107;48.850;8.924;2022-09-03T12:38:42;96603.13;;;18.68;70.24
10135;BME280;5107;48.850;8.924;2022-09-03T12:41:28;96592.94;;;18.22;70.85
10135;BME280;5107;48.850;8.924;2022-09-03T12:43:58;96610.78;;;18.22;70.57
10135;BME280;5107;48.850;8.924;2022-09-03T12:46:29;96595.00;;;18.20;70.96
10135;BME280;5107;48.850;8.924;2022-09-03T12:48:59;96593.78;;;18.41;68.93
10135;BME280;5107;48.850;8.924;2022-09-03T12:51:33;96596.06;;;18.55;67.90
10135;BME280;5107;48.850;8.924;2022-09-03T12:54:03;96594.53;;;18.66;67.42
10135;BME280;5107;48.850;8.924;2022-09-03T12:56:33;96608.00;;;18.71;67.55
10135;BME280;5107;48.850;8.924;2022-09-03T12:59:05;96605.22;;;18.66;67.98
10135;BME280;5107;48.850;8.924;2022-09-03T13:01:43;96611.81;;;18.93;68.14
10135;BME280;5107;48.850;8.924;2022-09-03T13:04:15;96618.34;;;19.27;66.17
10135;BME280;5107;48.850;8.924;2022-09-03T13:06:52;96619.78;;;19.42;66.64
10135;BME280;5107;48.850;8.924;2022-09-03T13:09:23;96610.22;;;19.52;66.26
10135;BME280;5107;48.850;8.924;2022-09-03T13:11:56;96617.00;;;19.78;66.09
10135;BME280;5107;48.850;8.924;2022-09-03T13:14:25;96616.19;;;19.78;65.86
10135;BME280;5107;48.850;8.924;2022-09-03T13:17:10;96620.28;;;19.80;66.08
10135;BME280;5107;48.850;8.924;2022-09-03T13:19:57;96622.72;;;19.93;65.37
10135;BME280;5107;48.850;8.924;2022-09-03T13:22:39;96627.25;;;19.81;65.26
10135;BME280;5107;48.850;8.924;2022-09-03T13:25:19;96621.13;;;19.51;66.11
10135;BME280;5107;48.850;8.924;2022-09-03T13:28:02;96618.44;;;19.51;67.84
10135;BME280;5107;48.850;8.924;2022-09-03T13:30:35;96611.47;;;19.20;70.91
10135;BME280;5107;48.850;8.924;2022-09-03T13:33:13;96614.53;;;19.35;72.03
10135;BME280;5107;48.850;8.924;2022-09-03T13:35:48;96608.84;;;19.61;70.03
10135;BME280;5107;48.850;8.924;2022-09-03T13:38:26;96608.22;;;20.24;69.46
10135;BME280;5107;48.850;8.924;2022-09-03T13:41:01;96602.75;;;20.54;67.11
10135;BME280;5107;48.850;8.924;2022-09-03T13:43:40;96595.72;;;21.16;67.46